Latest Weather Observations for Oenpelli Airport

IDD60801

Issued at 5:35 pm CST Wednesday 23 April 2014 (issued every 30 minutes, with the page automatically refreshed every 10 minutes)

About weather observations | Map of weather stations | Latest weather observations for NT | Other Formats
Station Details ID: 014310 Name: OENPELLI AIRPORT Lat: -12.33 Lon: 133.01 Height: 7.5 m
Data from the previous 72 hours. | See also: Recent months for locations in Northern Territory
Date/Time
CST
Temp
°C
App
Temp
°C
Dew
Point
Rel
Hum
%
Delta-T
°C
Wind Press
QNH
hPa
Press
MSL
hPa
Rain
since 9 am
mm
Dir
 
Spd
km/h
Gust
km/h
Spd
kts
Gust
kts
23/05:30pm 29.8 33.0 24.4 73 3.8 NNE 15 20 8 11 1005.8 1005.7 0.0
23/05:00pm 30.4 34.0 23.8 68 4.6 NNE 11 17 6 9 1005.4 - 0.0
23/04:30pm 32.1 35.7 24.4 63 5.4 NNE 13 19 7 10 1005.3 1005.2 0.0
23/04:00pm 32.3 35.7 24.1 62 5.7 NNE 13 19 7 10 1005.1 - 0.0
23/03:30pm 31.3 34.2 23.9 64 5.2 NNE 15 20 8 11 1005.1 1005.0 0.0
23/03:00pm 32.5 36.2 24.5 62 5.6 N 13 19 7 10 1005.4 1005.3 0.0
23/02:30pm 33.2 36.9 22.3 52 7.5 NNE 6 11 3 6 1005.7 1005.6 0.0
23/02:00pm 33.4 37.4 22.8 53 7.3 NE 6 11 3 6 1006.2 - 0.0
23/01:30pm 33.2 37.3 23.2 55 6.9 NNE 7 13 4 7 1006.8 1006.7 0.0
23/01:00pm 32.8 36.4 23.7 58 6.3 NNE 11 17 6 9 1007.2 - 0.0
23/12:30pm 31.4 34.3 22.4 59 6.1 ENE 11 19 6 10 1007.6 1007.5 0.0
23/12:00pm 32.6 36.1 23.5 58 6.3 NE 11 20 6 11 1008.0 1007.9 0.0
23/11:30am 32.1 35.8 23.3 59 6.1 NE 9 15 5 8 1008.3 1008.2 0.0
23/11:00am 31.4 35.5 23.2 61 5.6 NE 7 17 4 9 1008.8 - 0.0
23/10:30am 30.6 33.6 22.7 62 5.4 NE 11 15 6 8 1009.3 1009.2 0.0
23/10:00am 30.9 34.8 23.0 62 5.4 NE 7 11 4 6 1009.6 - 0.0
23/09:30am 30.0 33.4 22.7 65 5.0 ESE 9 17 5 9 1009.4 1009.3 0.0
23/09:00am 29.6 32.6 22.6 66 4.8 ESE 11 15 6 8 1009.2 1009.1 0.0
23/08:30am 28.5 31.8 22.5 70 4.1 ESE 9 15 5 8 1009.4 1009.3 0.0
23/08:00am 27.6 31.6 22.8 75 3.3 E 6 9 3 5 1009.3 - 0.0
23/07:30am 26.2 31.3 22.7 81 2.4 CALM 0 4 0 2 1009.3 1009.2 0.0
23/07:00am 24.5 29.4 22.4 88 1.4 CALM 0 0 0 0 1009.0 - 0.0
23/06:30am 24.4 29.1 21.9 86 1.7 CALM 0 0 0 0 1008.6 1008.5 0.0
23/06:00am 25.1 29.3 21.8 82 2.2 ESE 2 4 1 2 1008.1 1008.0 0.0
23/05:30am 25.3 28.9 22.0 82 2.2 ESE 6 7 3 4 1007.9 1007.8 0.0
23/05:00am 25.3 29.2 22.6 85 1.8 SE 6 7 3 4 1008.1 - 0.0
23/04:30am 25.3 30.4 23.4 89 1.3 N 2 6 1 3 1008.1 1008.0 0.0
23/04:00am 25.1 30.2 22.6 86 1.7 CALM 0 0 0 0 1008.1 - 0.0
23/03:30am 25.2 30.1 22.3 84 1.9 CALM 0 0 0 0 1008.3 1008.2 0.0
23/03:00am 25.7 29.9 22.4 82 2.2 NNE 4 6 2 3 1008.4 1008.3 0.0
23/02:30am 26.0 29.9 21.9 78 2.7 NNE 4 6 2 3 1008.1 1008.0 0.0
23/02:00am 26.5 29.5 21.3 73 3.4 E 7 11 4 6 1008.1 - 0.0
23/01:30am 26.5 29.8 21.5 74 3.3 E 6 7 3 4 1008.2 1008.1 0.0
23/01:00am 26.9 30.6 21.4 72 3.7 E 4 6 2 3 1008.7 - 0.0
23/12:30am 27.5 30.6 21.1 68 4.3 SE 6 9 3 5 1009.2 1009.1 0.0
23/12:00am 27.8 30.7 21.1 67 4.5 SE 7 11 4 6 1009.8 1009.7 0.0
 
Date/Time
CST
Temp
°C
App
Temp
°C
Dew
Point
Rel
Hum
%
Delta-T
°C
Wind Press
QNH
hPa
Press
MSL
hPa
Rain
since 9 am
mm
Dir
 
Spd
km/h
Gust
km/h
Spd
kts
Gust
kts
22/11:30pm 27.9 31.0 21.0 66 4.6 ESE 6 7 3 4 1010.3 1010.2 0.0
22/11:00pm 28.5 31.1 20.5 62 5.3 ESE 7 13 4 7 1010.5 - 0.0
22/10:30pm 29.0 30.8 20.4 59 5.7 ESE 11 19 6 10 1010.6 1010.5 0.0
22/10:00pm 29.4 31.2 20.3 58 6.0 ESE 11 20 6 11 1010.3 - 0.0
22/09:30pm 29.7 31.9 20.5 57 6.1 ESE 9 20 5 11 1009.7 1009.6 0.0
22/09:00pm 30.1 32.0 20.6 56 6.3 ESE 11 20 6 11 1009.5 1009.4 0.0
22/08:30pm 30.4 32.6 21.2 58 6.2 ESE 11 17 6 9 1009.3 1009.2 0.0
22/08:00pm 30.5 32.8 21.3 58 6.2 ESE 11 20 6 11 1009.1 - 0.0
22/07:30pm 31.0 32.6 21.5 57 6.4 E 15 20 8 11 1008.6 1008.5 0.0
22/07:00pm 31.2 33.9 21.4 56 6.6 E 9 13 5 7 1008.1 - 0.0
22/06:30pm 31.7 33.8 20.9 52 7.2 E 11 17 6 9 1007.5 1007.4 0.0
22/06:00pm 32.6 33.9 20.2 48 8.3 ESE 13 20 7 11 1007.1 1007.0 0.0
22/05:30pm 33.4 34.7 20.2 46 8.8 ESE 13 22 7 12 1006.8 1006.7 0.0
22/05:00pm 33.7 34.3 19.4 43 9.4 SE 15 28 8 15 1006.5 - 0.0
22/04:30pm 33.9 34.4 19.2 42 9.7 SE 15 22 8 12 1006.2 1006.1 0.0
22/04:00pm 34.5 33.7 18.5 38 10.4 ESE 20 33 11 18 1006.2 - 0.0
22/03:30pm 34.3 33.3 17.9 37 10.6 ESE 20 32 11 17 1006.2 1006.1 0.0
22/03:00pm 33.7 33.9 19.4 43 9.4 SE 17 26 9 14 1006.3 1006.2 0.0
22/02:30pm 33.6 34.3 20.4 46 8.8 S 17 26 9 14 1006.4 1006.3 0.0
22/02:00pm 33.1 35.4 21.3 50 8.0 SSE 11 22 6 12 1006.9 - 0.0
22/01:30pm 33.0 35.4 21.5 50 7.8 SSE 11 19 6 10 1007.5 1007.4 0.0
22/01:00pm 32.3 33.4 21.2 52 7.5 SE 17 26 9 14 1008.2 - 0.0
22/12:30pm 32.9 34.6 21.7 51 7.6 SE 15 22 8 12 1008.7 1008.6 0.0
22/12:00pm 32.2 35.0 22.3 56 6.8 E 11 19 6 10 1009.3 1009.2 0.0
22/11:30am 31.3 33.5 21.8 57 6.4 SE 13 22 7 12 1010.3 1010.2 0.0
22/11:00am 31.9 33.9 22.3 56 6.5 ESE 15 26 8 14 1010.8 - 0.0
22/10:30am 31.2 32.8 22.2 58 6.1 ESE 17 28 9 15 1011.1 1011.0 0.0
22/10:00am 30.2 31.2 22.1 62 5.5 E 20 28 11 15 1011.4 - 0.0
22/09:30am 30.0 32.1 22.4 63 5.2 ESE 15 24 8 13 1011.1 1011.0 0.0
22/09:00am 29.3 31.6 22.0 64 4.9 ESE 13 22 7 12 1011.4 1011.3 0.0
22/08:30am 28.5 31.3 22.3 69 4.2 E 11 20 6 11 1011.2 1011.1 0.0
22/08:00am 27.5 30.5 22.0 72 3.7 ESE 9 15 5 8 1010.8 - 0.0
22/07:30am 26.8 31.1 22.0 75 3.2 ENE 2 6 1 3 1010.7 1010.6 0.0
22/07:00am 25.4 28.7 21.5 79 2.6 ESE 6 9 3 5 1010.4 - 0.0
22/06:30am 25.4 28.5 21.5 79 2.6 ESE 7 11 4 6 1010.1 1010.0 0.0
22/06:00am 25.2 28.1 21.1 78 2.7 ESE 7 9 4 5 1009.9 1009.8 0.0
22/05:30am 25.8 28.3 21.0 75 3.2 ESE 9 15 5 8 1009.7 1009.6 0.0
22/05:00am 25.6 28.8 21.3 77 2.8 SE 6 13 3 7 1009.6 - 0.0
22/04:30am 25.5 28.6 21.0 76 3.0 E 6 9 3 5 1009.4 1009.3 0.0
22/04:00am 25.7 29.1 20.9 75 3.2 E 4 9 2 5 1009.3 - 0.0
22/03:30am 25.8 29.1 20.8 74 3.3 E 4 7 2 4 1009.3 1009.2 0.0
22/03:00am 26.2 28.6 20.8 72 3.6 ESE 9 13 5 7 1009.1 1009.0 0.0
22/02:30am 26.3 28.9 20.4 70 3.9 ESE 7 9 4 5 1009.3 1009.2 0.0
22/02:00am 26.8 29.5 20.6 69 4.1 SE 7 15 4 8 1009.3 - 0.0
22/01:30am 26.5 29.5 20.8 71 3.8 ESE 6 7 3 4 1009.9 1009.8 0.0
22/01:00am 26.8 29.5 20.6 69 4.1 E 7 11 4 6 1010.2 - 0.0
22/12:30am 27.1 29.4 20.7 68 4.2 ESE 9 15 5 8 1010.4 1010.3 0.0
22/12:00am 27.6 29.8 21.2 68 4.3 ESE 11 17 6 9 1010.6 1010.5 0.0
 
Date/Time
CST
Temp
°C
App
Temp
°C
Dew
Point
Rel
Hum
%
Delta-T
°C
Wind Press
QNH
hPa
Press
MSL
hPa
Rain
since 9 am
mm
Dir
 
Spd
km/h
Gust
km/h
Spd
kts
Gust
kts
21/11:30pm 26.2 30.3 22.9 82 2.2 ESE 6 7 3 4 1010.7 1010.6 0.0
21/11:00pm 26.0 30.7 23.3 85 1.8 NE 4 7 2 4 1010.7 - 0.0
21/10:30pm 26.6 31.4 22.9 80 2.5 ENE 2 6 1 3 1010.6 1010.5 0.0
21/10:00pm 27.1 31.2 22.3 75 3.2 ESE 4 7 2 4 1010.5 - 0.0
21/09:30pm 27.7 31.1 22.0 71 3.8 ESE 7 9 4 5 1010.6 1010.5 0.0
21/09:00pm 27.6 31.7 22.3 73 3.6 E 4 7 2 4 1010.6 1010.5 0.0
21/08:30pm 26.2 30.4 23.1 83 2.1 ENE 6 9 3 5 1010.8 1010.7 0.0
21/08:00pm 26.4 29.5 22.9 81 2.4 E 11 17 6 9 1010.6 - 0.0
21/07:30pm 28.2 31.8 23.8 77 3.0 NE 11 19 6 10 1010.3 1010.2 0.0
21/07:00pm 29.4 33.6 23.1 69 4.3 NE 6 7 3 4 1009.4 - 0.0
21/06:30pm 30.1 34.5 22.8 65 5.0 NE 4 4 2 2 1008.9 1008.8 0.0
21/06:00pm 31.9 35.7 21.7 54 6.9 NE 4 7 2 4 1008.6 1008.5 0.0
21/05:30pm 33.0 35.4 20.9 49 8.1 ENE 9 17 5 9 1008.6 1008.5 0.0
21/05:00pm 33.1 34.7 19.9 45 8.7 ENE 11 20 6 11 1008.3 - 0.0
21/04:30pm 33.2 34.4 20.0 45 8.8 ENE 13 19 7 10 1008.2 1008.1 0.0
21/04:00pm 33.1 34.5 20.3 47 8.5 ENE 13 20 7 11 1008.1 - 0.0
21/03:30pm 32.9 34.7 20.4 47 8.3 E 11 20 6 11 1008.0 1007.9 0.0
21/03:00pm 33.5 35.2 21.0 48 8.4 ENE 13 22 7 12 1008.2 1008.1 0.0
21/02:30pm 33.1 34.4 20.9 48 8.2 ENE 15 24 8 13 1008.3 1008.2 0.0
21/02:00pm 32.8 33.3 20.0 47 8.5 E 17 26 9 14 1008.5 - 0.0
21/01:30pm 32.9 34.5 21.4 50 7.8 E 15 26 8 14 1008.9 1008.8 0.0
21/01:00pm 32.3 33.0 21.2 52 7.5 ENE 19 28 10 15 1009.0 - 0.0
21/12:30pm 32.2 33.5 21.7 54 7.1 ENE 17 26 9 14 1009.4 1009.3 0.0
21/12:00pm 31.3 32.1 21.8 57 6.4 E 20 33 11 18 1009.9 1009.8 0.0
21/11:30am 30.6 31.8 21.4 58 6.2 E 17 28 9 15 1010.4 1010.3 0.0
21/11:00am 29.9 30.3 21.0 59 5.9 E 20 32 11 17 1010.7 - 0.0
21/10:30am 29.4 29.3 21.4 62 5.4 ENE 24 37 13 20 1010.9 1010.8 0.0
21/10:00am 29.0 29.0 21.0 62 5.3 E 22 33 12 18 1010.9 - 0.0
21/09:30am 28.7 28.6 20.7 62 5.3 E 22 37 12 20 1010.8 1010.7 0.0
21/09:00am 28.1 28.8 20.4 63 5.1 E 17 28 9 15 1010.7 1010.6 3.0
21/08:30am 27.8 29.0 20.6 65 4.8 E 15 22 8 12 1010.5 1010.4 3.0
21/08:00am 27.3 30.2 20.6 67 4.4 ESE 6 9 3 5 1010.5 - 3.0
21/07:30am 25.4 28.2 20.4 74 3.3 ESE 6 9 3 5 1010.1 1010.0 3.0
21/07:00am 24.7 27.6 20.6 78 2.7 E 6 7 3 4 1009.7 - 3.0
21/06:30am 24.4 27.6 21.3 83 2.0 E 6 7 3 4 1009.2 1009.1 3.0
21/06:00am 23.7 28.1 21.4 87 1.5 CALM 0 0 0 0 1009.2 1009.1 3.0
21/05:30am 24.3 28.8 21.6 85 1.8 CALM 0 0 0 0 1009.1 1009.0 3.0
21/05:00am 24.8 28.6 21.7 83 2.1 E 4 4 2 2 1009.1 - 3.0
21/04:30am 25.1 29.2 21.6 81 2.3 ESE 2 7 1 4 1009.0 1008.9 3.0
21/04:00am 25.0 28.7 21.5 81 2.3 ENE 4 6 2 3 1009.1 - 3.0
21/03:30am 25.2 28.8 21.3 79 2.6 E 4 7 2 4 1009.0 1008.9 3.0
21/03:00am 25.3 28.5 21.2 78 2.7 ESE 6 9 3 5 1008.9 1008.8 3.0
21/02:30am 25.3 28.4 21.0 77 2.8 ESE 6 7 3 4 1009.2 1009.1 3.0
21/02:00am 25.7 29.2 21.1 76 3.0 E 4 7 2 4 1009.4 - 3.0
21/01:30am 25.9 29.0 21.1 75 3.2 E 6 9 3 5 1010.0 1009.9 3.0
21/01:00am 26.2 29.5 21.4 75 3.2 ESE 6 7 3 4 1010.1 - 3.0
21/12:30am 26.2 29.6 21.6 76 3.1 ESE 6 9 3 5 1010.1 1010.0 3.0
21/12:00am 26.6 28.8 21.8 75 3.2 ESE 13 20 7 11 1010.0 1009.9 3.0
 
Date/Time
CST
Temp
°C
App
Temp
°C
Dew
Point
Rel
Hum
%
Delta-T
°C
Wind Press
QNH
hPa
Press
MSL
hPa
Rain
since 9 am
mm
Dir
 
Spd
km/h
Gust
km/h
Spd
kts
Gust
kts
20/11:30pm 26.4 29.8 22.7 80 2.5 SE 9 15 5 8 1010.1 1010.0 3.0
20/11:00pm 25.4 29.9 23.6 90 1.2 SE 6 7 3 4 1010.3 - 3.0
20/10:30pm 24.9 30.7 23.9 94 0.7 CALM 0 4 0 2 1010.7 1010.6 3.0
20/10:00pm 24.6 29.3 23.4 93 0.8 ESE 4 7 2 4 1011.0 - 3.0
20/09:30pm 24.3 28.6 23.3 94 0.7 E 6 7 3 4 1011.1 1011.0 2.8
20/09:00pm 24.1 28.2 22.9 93 0.8 E 6 7 3 4 1011.4 1011.3 2.6
20/08:30pm 24.2 27.3 22.8 92 0.9 ENE 11 20 6 11 1011.3 1011.2 2.0
20/08:00pm 24.5 25.2 22.9 91 1.1 ENE 24 35 13 19 1011.2 - 2.0
20/07:42pm 26.8 26.2 22.0 75 3.2 ENE 28 33 15 18 1010.7 - 0.0
20/07:30pm 27.0 30.9 23.0 79 2.7 NNE 7 11 4 6 1010.2 1010.1 0.0
20/07:00pm 27.8 31.9 23.2 76 3.1 NNE 7 11 4 6 1009.4 - 0.0
20/06:30pm 28.0 32.2 23.2 75 3.3 N 6 9 3 5 1009.0 1008.9 0.0
20/06:00pm 27.9 31.4 22.8 74 3.5 NNE 9 13 5 7 1008.8 1008.7 0.0

Other Formats:

Comma delimited format used in spreadsheet applications
http://www.bom.gov.au/fwo/IDD60801/IDD60801.94110.axf

JavaScript Object Notation format (JSON) in row-major order
http://www.bom.gov.au/fwo/IDD60801/IDD60801.94110.json